Time;durP1;ratioP1;P1;durP2;ratioP2;P2;SDS_P1;SDS_P2;PMS_P1;PMS_P2;Temp;Humidity;BMP_temperature;BMP_pressure;BME280_temperature;BME280_humidity;BME280_pressure;Samples;Min_cycle;Max_cycle;Signal;HPM_P1;HPM_P2
2021/01/12 00:02:18;202687.00;0.68;350.55;0.00;0.00;0.62;;;;;9.10;1.00;;;;;;2253164;61;1992;-86
2021/01/12 00:04:45;92359.00;0.31;160.38;11670.00;0.04;20.84;;;;;9.30;1.00;;;;;;2256557;61;1068;-86
2021/01/12 00:07:13;42685.00;0.14;74.53;0.00;0.00;0.62;;;;;9.40;1.00;;;;;;2248466;61;1058;-86
2021/01/12 00:09:40;15802.00;0.05;28.00;0.00;0.00;0.62;;;;;9.60;1.00;;;;;;2240564;62;1430;-86
2021/01/12 00:12:08;0.00;0.00;0.62;0.00;0.00;0.62;;;;;9.70;1.00;;;;;;2241207;61;1169;-87
2021/01/12 00:14:35;45010.00;0.15;78.56;0.00;0.00;0.62;;;;;9.80;1.00;;;;;;2243254;61;1106;-87
2021/01/12 00:17:03;77119.00;0.26;134.06;0.00;0.00;0.62;;;;;9.70;1.00;;;;;;2256528;61;1158;-86
2021/01/12 00:19:30;37032.00;0.12;64.75;0.00;0.00;0.62;;;;;9.60;1.00;;;;;;2256317;61;1482;-86
2021/01/12 00:21:57;32471.00;0.11;56.86;0.00;0.00;0.62;;;;;9.50;1.00;;;;;;2256411;61;2001;-87
2021/01/12 00:24:24;127240.00;0.42;220.57;0.00;0.00;0.62;;;;;9.50;1.00;;;;;;2257677;61;978;-87
2021/01/12 00:26:52;87950.00;0.29;152.77;0.00;0.00;0.62;;;;;9.50;1.00;;;;;;2256996;61;1152;-86
2021/01/12 00:29:19;15106.00;0.05;26.79;0.00;0.00;0.62;;;;;9.40;1.00;;;;;;2261041;61;1310;-87
2021/01/12 00:31:46;21570.00;0.07;37.99;0.00;0.00;0.62;;;;;9.30;1.00;;;;;;2264532;61;930;-87
2021/01/12 00:34:14;11869.00;0.04;21.19;0.00;0.00;0.62;;;;;9.10;1.00;;;;;;2264524;61;1059;-88
2021/01/12 00:36:42;20018.00;0.07;35.30;0.00;0.00;0.62;;;;;9.30;1.00;;;;;;2257878;61;1004;-86
2021/01/12 00:39:09;44696.00;0.15;78.01;0.00;0.00;0.62;;;;;9.10;1.00;;;;;;2256390;61;1314;-87
2021/01/12 00:41:35;0.00;0.00;0.62;0.00;0.00;0.62;;;;;8.60;1.00;;;;;;2256194;61;980;-86
2021/01/12 00:44:04;67086.00;0.22;116.72;0.00;0.00;0.62;;;;;8.40;1.00;;;;;;2256399;61;1936;-87
2021/01/12 00:46:30;33775.00;0.11;59.12;0.00;0.00;0.62;;;;;7.90;1.00;;;;;;2256372;61;1006;-88
2021/01/12 00:48:57;91664.00;0.31;159.18;0.00;0.00;0.62;;;;;7.90;1.00;;;;;;2256392;61;1332;-86
2021/01/12 00:51:33;15770.00;0.05;27.94;0.00;0.00;0.62;;;;;8.20;1.00;;;;;;2256390;61;1616;-86
2021/01/12 00:53:59;0.00;0.00;0.62;0.00;0.00;0.62;;;;;8.70;1.00;;;;;;2256343;61;1026;-87
2021/01/12 00:56:26;82039.00;0.27;142.56;15283.00;0.05;27.10;;;;;8.80;1.00;;;;;;2251247;61;968;-87
2021/01/12 00:58:52;8890.00;0.03;16.03;0.00;0.00;0.62;;;;;9.30;1.00;;;;;;2255337;61;1439;-87
2021/01/12 01:01:19;22282.00;0.07;39.22;0.00;0.00;0.62;;;;;9.40;1.00;;;;;;2268878;61;1023;-87
2021/01/12 01:03:46;16332.00;0.05;28.92;0.00;0.00;0.62;;;;;9.70;1.00;;;;;;2260300;61;2011;-86
2021/01/12 01:06:13;120083.00;0.40;208.23;0.00;0.00;0.62;;;;;9.50;1.00;;;;;;2252275;61;946;-87
2021/01/12 01:08:39;133418.00;0.44;231.22;7369.00;0.02;13.39;;;;;9.40;1.00;;;;;;2252296;61;1699;-87
2021/01/12 01:11:06;48043.00;0.16;83.80;0.00;0.00;0.62;;;;;9.50;1.00;;;;;;2252322;61;1238;-88
2021/01/12 01:13:33;36349.00;0.12;63.57;0.00;0.00;0.62;;;;;9.70;1.00;;;;;;2252348;61;1163;-87
2021/01/12 01:15:59;44057.00;0.15;76.91;0.00;0.00;0.62;;;;;9.40;1.00;;;;;;2252361;61;1058;-88
2021/01/12 01:18:27;36656.00;0.12;64.10;0.00;0.00;0.62;;;;;9.40;1.00;;;;;;2252316;61;1029;-88
2021/01/12 01:20:53;68659.00;0.23;119.44;0.00;0.00;0.62;;;;;9.40;1.00;;;;;;2250289;61;1290;-87
2021/01/12 01:23:20;57689.00;0.19;100.48;0.00;0.00;0.62;;;;;9.50;1.00;;;;;;2264842;61;1920;-87
2021/01/12 01:25:46;66052.00;0.22;114.94;0.00;0.00;0.62;;;;;9.70;1.00;;;;;;2265067;61;967;-87
2021/01/12 01:28:13;0.00;0.00;0.62;0.00;0.00;0.62;;;;;9.90;1.00;;;;;;2264268;61;961;-87
2021/01/12 01:30:40;23420.00;0.08;41.19;0.00;0.00;0.62;;;;;9.90;1.00;;;;;;2256200;61;1363;-87
2021/01/12 01:33:06;100237.00;0.33;173.98;0.00;0.00;0.62;;;;;10.00;1.00;;;;;;2256184;61;1002;-87
2021/01/12 01:35:33;37156.00;0.12;64.97;0.00;0.00;0.62;;;;;9.40;1.00;;;;;;2256190;61;1063;-88
2021/01/12 01:38:00;18939.00;0.06;33.43;0.00;0.00;0.62;;;;;9.40;1.00;;;;;;2252181;61;983;-88
2021/01/12 01:40:28;0.00;0.00;0.62;0.00;0.00;0.62;;;;;9.40;1.00;;;;;;2252252;61;1358;-87
2021/01/12 01:42:55;24285.00;0.08;42.69;0.00;0.00;0.62;;;;;9.20;1.00;;;;;;2252174;61;1916;-88
2021/01/12 01:45:23;0.00;0.00;0.62;0.00;0.00;0.62;;;;;9.00;1.00;;;;;;2249363;61;968;-88
2021/01/12 01:47:50;9072.00;0.03;16.34;0.00;0.00;0.62;;;;;8.70;1.00;;;;;;2257322;61;1311;-87
2021/01/12 01:50:19;111742.00;0.37;193.84;0.00;0.00;0.62;;;;;8.40;1.00;;;;;;2257548;61;1290;-87
2021/01/12 01:52:51;64501.00;0.22;112.26;0.00;0.00;0.62;;;;;8.00;1.00;;;;;;2264233;61;1330;-88
2021/01/12 01:55:18;46896.00;0.16;81.82;0.00;0.00;0.62;;;;;7.60;1.00;;;;;;2257662;61;1087;-88
2021/01/12 01:57:44;9815.00;0.03;17.63;0.00;0.00;0.62;;;;;7.30;1.00;;;;;;2257390;61;1026;-87
2021/01/12 02:00:14;49935.00;0.17;87.07;0.00;0.00;0.62;;;;;7.10;1.00;;;;;;2264220;61;1458;-88
2021/01/12 02:02:50;25927.00;0.09;45.53;0.00;0.00;0.62;;;;;7.00;1.00;;;;;;2263770;61;1923;-87
2021/01/12 02:05:23;12792.00;0.04;22.79;0.00;0.00;0.62;;;;;7.20;1.00;;;;;;2264281;61;916;-88
2021/01/12 02:07:55;63083.00;0.21;109.81;0.00;0.00;0.62;;;;;7.10;1.00;;;;;;2257574;61;1029;-88
2021/01/12 02:10:25;120871.00;0.40;209.58;0.00;0.00;0.62;;;;;6.70;1.00;;;;;;2256104;61;1377;-87
2021/01/12 02:12:58;169679.00;0.57;293.71;0.00;0.00;0.62;;;;;6.70;1.00;;;;;;2257432;61;1020;-88
2021/01/12 02:15:26;32751.00;0.11;57.34;0.00;0.00;0.62;;;;;6.70;1.00;;;;;;2260218;61;1033;-88
2021/01/12 02:17:53;102056.00;0.34;177.12;0.00;0.00;0.62;;;;;6.70;1.00;;;;;;2260117;61;1787;-88
2021/01/12 02:20:22;175264.00;0.58;303.33;0.00;0.00;0.62;;;;;7.10;1.00;;;;;;2256099;61;1344;-88
2021/01/12 02:23:08;38165.00;0.13;66.71;0.00;0.00;0.62;;;;;7.00;1.00;;;;;;2248117;61;1997;-88
2021/01/12 02:25:37;32622.00;0.11;57.12;0.00;0.00;0.62;;;;;6.90;1.00;;;;;;2244884;62;991;-89
2021/01/12 02:28:06;98279.00;0.33;170.60;0.00;0.00;0.62;;;;;6.80;1.00;;;;;;2254311;61;946;-86
2021/01/12 02:30:33;69008.00;0.23;120.05;0.00;0.00;0.62;;;;;6.40;1.00;;;;;;2252743;61;1439;-88
2021/01/12 02:33:00;36522.00;0.12;63.87;0.00;0.00;0.62;;;;;6.20;1.00;;;;;;2256190;61;1022;-87
2021/01/12 02:35:30;9379.00;0.03;16.87;0.00;0.00;0.62;;;;;6.20;1.00;;;;;;2256099;61;1030;-88
2021/01/12 02:37:58;0.00;0.00;0.62;0.00;0.00;0.62;;;;;6.20;1.00;;;;;;2254088;61;979;-86
2021/01/12 02:40:25;3232.00;0.01;6.22;0.00;0.00;0.62;;;;;6.30;1.00;;;;;;2262799;61;1336;-87
2021/01/12 02:42:52;7255.00;0.02;13.19;0.00;0.00;0.62;;;;;6.50;1.00;;;;;;2268543;61;1906;-87
2021/01/12 02:45:20;8654.00;0.03;15.62;0.00;0.00;0.62;;;;;6.60;1.00;;;;;;2264864;61;1001;-87
2021/01/12 02:47:47;49692.00;0.17;86.65;0.00;0.00;0.62;;;;;6.90;1.00;;;;;;2264838;61;968;-87
2021/01/12 02:50:15;24651.00;0.08;43.32;0.00;0.00;0.62;;;;;6.50;1.00;;;;;;2268541;61;1422;-88
2021/01/12 02:52:42;75.00;0.00;0.75;0.00;0.00;0.62;;;;;6.60;1.00;;;;;;2264034;61;964;-87
2021/01/12 02:55:11;62480.00;0.21;108.76;0.00;0.00;0.62;;;;;6.60;1.00;;;;;;2263996;61;1656;-87
2021/01/12 02:57:38;9643.00;0.03;17.33;0.00;0.00;0.62;;;;;6.20;1.00;;;;;;2264138;61;1022;-87
2021/01/12 03:00:08;0.00;0.00;0.62;0.00;0.00;0.62;;;;;6.50;1.00;;;;;;2264115;61;1466;-87
2021/01/12 03:02:34;12976.00;0.04;23.10;0.00;0.00;0.62;;;;;6.30;1.00;;;;;;2264134;61;1993;-87
2021/01/12 03:05:01;18247.00;0.06;32.23;0.00;0.00;0.62;;;;;6.60;1.00;;;;;;2264103;61;1013;-86
2021/01/12 03:07:28;0.00;0.00;0.62;0.00;0.00;0.62;;;;;6.60;1.00;;;;;;2257466;61;1018;-87
2021/01/12 03:09:54;7794.00;0.03;14.13;0.00;0.00;0.62;;;;;7.30;1.00;;;;;;2261877;61;1396;-87
2021/01/12 03:12:21;10779.00;0.04;19.30;0.00;0.00;0.62;;;;;7.50;1.00;;;;;;2258804;61;1009;-88
2021/01/12 03:14:47;46789.00;0.16;81.63;0.00;0.00;0.62;;;;;7.80;1.00;;;;;;2256693;61;956;-88
2021/01/12 03:17:15;76844.00;0.26;133.59;0.00;0.00;0.62;;;;;8.00;1.00;;;;;;2256650;61;995;-88
2021/01/12 03:19:42;7731.00;0.03;14.02;0.00;0.00;0.62;;;;;7.90;1.00;;;;;;2256667;61;1385;-87
2021/01/12 03:22:09;10186.00;0.03;18.27;0.00;0.00;0.62;;;;;7.80;1.00;;;;;;2256580;61;2005;-87
2021/01/12 03:24:35;6955.00;0.02;12.67;0.00;0.00;0.62;;;;;7.20;1.00;;;;;;2244703;61;1040;-86
2021/01/12 03:27:02;18245.00;0.06;32.23;0.00;0.00;0.62;;;;;7.00;1.00;;;;;;2240716;62;948;-87
2021/01/12 03:29:28;24345.00;0.08;42.79;0.00;0.00;0.62;;;;;7.00;1.00;;;;;;2240744;62;1413;-88
2021/01/12 03:31:55;300.00;0.00;1.14;0.00;0.00;0.62;;;;;7.20;1.00;;;;;;2241154;62;1062;-87
2021/01/12 03:34:23;30659.00;0.10;53.72;0.00;0.00;0.62;;;;;7.10;1.00;;;;;;2249290;61;1041;-87
2021/01/12 03:36:50;75572.00;0.25;131.39;0.00;0.00;0.62;;;;;6.90;1.00;;;;;;2253301;61;1043;-85
2021/01/12 03:39:17;7495.00;0.02;13.61;0.00;0.00;0.62;;;;;6.80;1.00;;;;;;2256654;61;1428;-87
2021/01/12 03:41:43;24936.00;0.08;43.82;0.00;0.00;0.62;;;;;6.90;1.00;;;;;;2250975;61;1047;-87
2021/01/12 03:44:10;0.00;0.00;0.62;0.00;0.00;0.62;;;;;7.30;1.00;;;;;;2261785;61;1920;-87
2021/01/12 03:46:36;0.00;0.00;0.62;0.00;0.00;0.62;;;;;7.00;1.00;;;;;;2269135;61;1017;-87
2021/01/12 03:49:03;0.00;0.00;0.62;0.00;0.00;0.62;;;;;7.00;1.00;;;;;;2269082;61;1471;-86
2021/01/12 03:51:30;0.00;0.00;0.62;0.00;0.00;0.62;;;;;7.10;1.00;;;;;;2269098;61;1039;-87
2021/01/12 03:53:57;0.00;0.00;0.62;0.00;0.00;0.62;;;;;7.60;1.00;;;;;;2264546;61;1056;-86
2021/01/12 03:56:23;0.00;0.00;0.62;0.00;0.00;0.62;;;;;8.00;1.00;;;;;;2264558;61;951;-87
2021/01/12 03:58:50;1485.00;0.00;3.19;0.00;0.00;0.62;;;;;8.30;1.00;;;;;;2261197;61;1354;-87
2021/01/12 04:01:16;42949.00;0.14;74.99;0.00;0.00;0.62;;;;;8.20;1.00;;;;;;2264604;61;1014;-88
2021/01/12 04:03:44;15664.00;0.05;27.76;0.00;0.00;0.62;;;;;8.50;1.00;;;;;;2264594;61;1977;-86
2021/01/12 04:06:15;19814.00;0.07;34.95;0.00;0.00;0.62;;;;;8.50;1.00;;;;;;2254630;61;1018;-87
2021/01/12 04:08:44;0.00;0.00;0.62;0.00;0.00;0.62;;;;;8.50;1.00;;;;;;2260483;61;946;-87
2021/01/12 04:11:12;24378.00;0.08;42.85;0.00;0.00;0.62;;;;;8.50;1.00;;;;;;2253704;61;1425;-87
2021/01/12 04:13:39;30738.00;0.10;53.86;0.00;0.00;0.62;;;;;7.90;1.00;;;;;;2260524;61;1012;-87
2021/01/12 04:16:06;0.00;0.00;0.62;0.00;0.00;0.62;;;;;8.10;1.00;;;;;;2260427;61;931;-88
2021/01/12 04:18:32;15077.00;0.05;26.74;0.00;0.00;0.62;;;;;8.10;1.00;;;;;;2260432;61;1168;-88
2021/01/12 04:20:59;104304.00;0.35;181.00;0.00;0.00;0.62;;;;;8.10;1.00;;;;;;2260316;61;1463;-87
2021/01/12 04:23:25;0.00;0.00;0.62;0.00;0.00;0.62;;;;;7.90;1.00;;;;;;2260455;61;1916;-86
2021/01/12 04:25:53;595.00;0.00;1.65;0.00;0.00;0.62;;;;;8.00;1.00;;;;;;2257068;61;1089;-87
2021/01/12 04:28:19;0.00;0.00;0.62;0.00;0.00;0.62;;;;;7.70;1.00;;;;;;2258143;61;970;-86
2021/01/12 04:30:46;20836.00;0.07;36.72;0.00;0.00;0.62;;;;;7.60;1.00;;;;;;2265108;61;1306;-86
2021/01/12 04:33:13;16011.00;0.05;28.36;0.00;0.00;0.62;;;;;7.50;1.00;;;;;;2265263;61;1003;-86
2021/01/12 04:35:40;38969.00;0.13;68.10;0.00;0.00;0.62;;;;;7.10;1.00;;;;;;2265269;61;960;-88
2021/01/12 04:38:07;0.00;0.00;0.62;0.00;0.00;0.62;;;;;6.90;1.00;;;;;;2264484;61;1001;-87
2021/01/12 04:40:34;0.00;0.00;0.62;0.00;0.00;0.62;;;;;6.70;1.00;;;;;;2264396;61;1331;-87
2021/01/12 04:43:01;29556.00;0.10;51.81;0.00;0.00;0.62;;;;;6.10;1.00;;;;;;2261100;61;1927;-86
2021/01/12 04:45:28;36786.00;0.12;64.33;0.00;0.00;0.62;;;;;6.30;1.00;;;;;;2264415;61;985;-87
2021/01/12 04:47:54;16283.00;0.05;28.83;0.00;0.00;0.62;;;;;6.20;1.00;;;;;;2264372;61;1029;-87
2021/01/12 04:50:21;11233.00;0.04;20.09;0.00;0.00;0.62;;;;;6.30;1.00;;;;;;2261064;61;1353;-87
2021/01/12 04:52:50;6300.00;0.02;11.54;0.00;0.00;0.62;;;;;6.40;1.00;;;;;;2264354;61;997;-88
2021/01/12 04:55:19;16844.00;0.06;29.80;0.00;0.00;0.62;;;;;6.20;1.00;;;;;;2264951;61;1059;-87
2021/01/12 04:57:47;39638.00;0.13;69.26;0.00;0.00;0.62;;;;;6.40;1.00;;;;;;2268439;61;959;-87
2021/01/12 05:00:17;8444.00;0.03;15.25;0.00;0.00;0.62;;;;;6.70;1.00;;;;;;2265037;61;1443;-87
2021/01/12 05:03:02;3489.00;0.01;6.67;0.00;0.00;0.62;;;;;6.90;1.00;;;;;;2260327;61;2019;-87
2021/01/12 05:05:29;30628.00;0.10;53.67;0.00;0.00;0.62;;;;;6.90;1.00;;;;;;2256310;61;996;-86
2021/01/12 05:08:03;8112.00;0.03;14.68;0.00;0.00;0.62;;;;;7.30;1.00;;;;;;2256330;61;1035;-88
2021/01/12 05:10:34;148062.00;0.49;256.47;34783.00;0.12;60.86;;;;;7.30;1.00;;;;;;2256211;61;1326;-87
2021/01/12 05:13:01;18458.00;0.06;32.60;0.00;0.00;0.62;;;;;6.80;1.00;;;;;;2246475;61;951;-87
2021/01/12 05:15:29;51470.00;0.17;89.73;0.00;0.00;0.62;;;;;6.70;1.00;;;;;;2256397;61;1036;-87
2021/01/12 05:17:57;18748.00;0.06;33.10;0.00;0.00;0.62;;;;;6.70;1.00;;;;;;2244207;61;1009;-86
2021/01/12 05:20:26;45075.00;0.15;78.67;0.00;0.00;0.62;;;;;6.90;1.00;;;;;;2247003;61;1365;-85
2021/01/12 05:23:04;5734.00;0.02;10.56;0.00;0.00;0.62;;;;;7.00;1.00;;;;;;2252169;61;1916;-86
2021/01/12 05:25:33;24128.00;0.08;42.42;0.00;0.00;0.62;;;;;6.80;1.00;;;;;;2252180;61;1021;-84
2021/01/12 05:28:04;19466.00;0.06;34.35;0.00;0.00;0.62;;;;;6.70;1.00;;;;;;2252274;61;999;-86
2021/01/12 05:30:32;42471.00;0.14;74.16;0.00;0.00;0.62;;;;;6.60;1.00;;;;;;2258270;61;1229;-86
2021/01/12 05:32:59;12329.00;0.04;21.98;0.00;0.00;0.62;;;;;6.80;1.00;;;;;;2259889;61;1069;-87
2021/01/12 05:35:29;13660.00;0.05;24.29;0.00;0.00;0.62;;;;;6.90;1.00;;;;;;2260085;61;1003;-88
2021/01/12 05:38:01;28074.00;0.09;49.25;0.00;0.00;0.62;;;;;7.10;1.00;;;;;;2260218;61;1127;-87
2021/01/12 05:40:31;0.00;0.00;0.62;0.00;0.00;0.62;;;;;6.70;1.00;;;;;;2260083;61;1331;-85
2021/01/12 05:43:08;24288.00;0.08;42.69;0.00;0.00;0.62;;;;;6.70;1.00;;;;;;2266619;61;1912;-85
2021/01/12 05:45:38;7921.00;0.03;14.35;0.00;0.00;0.62;;;;;6.50;1.00;;;;;;2268652;61;944;-87
2021/01/12 05:48:05;36672.00;0.12;64.13;0.00;0.00;0.62;;;;;6.60;1.00;;;;;;2271521;61;1013;-87
2021/01/12 05:50:32;11531.00;0.04;20.60;0.00;0.00;0.62;;;;;6.60;1.00;;;;;;2271503;61;1428;-87
2021/01/12 05:53:06;24954.00;0.08;43.85;0.00;0.00;0.62;;;;;6.90;1.00;;;;;;2268624;61;947;-86
2021/01/12 05:55:38;31739.00;0.11;55.59;0.00;0.00;0.62;;;;;7.10;1.00;;;;;;2268612;61;1052;-87
2021/01/12 05:58:15;39732.00;0.13;69.42;0.00;0.00;0.62;;;;;7.00;1.00;;;;;;2264883;61;1038;-87
2021/01/12 06:00:43;48023.00;0.16;83.77;0.00;0.00;0.62;;;;;7.00;1.00;;;;;;2264838;61;1354;-87
2021/01/12 06:03:15;0.00;0.00;0.62;0.00;0.00;0.62;;;;;7.30;1.00;;;;;;2268568;61;2006;-88
2021/01/12 06:05:46;0.00;0.00;0.62;0.00;0.00;0.62;;;;;7.00;1.00;;;;;;2268513;61;1115;-87
2021/01/12 06:08:14;54799.00;0.18;95.48;0.00;0.00;0.62;;;;;7.40;1.00;;;;;;2268544;61;1141;-85
2021/01/12 06:10:43;31919.00;0.11;55.90;0.00;0.00;0.62;;;;;7.50;1.00;;;;;;2268540;61;1434;-86
2021/01/12 06:13:14;7773.00;0.03;14.09;0.00;0.00;0.62;;;;;7.40;1.00;;;;;;2268534;61;923;-87
2021/01/12 06:15:44;6670.00;0.02;12.18;0.00;0.00;0.62;;;;;7.10;1.00;;;;;;2268476;61;1118;-86
2021/01/12 06:18:15;58307.00;0.19;101.55;0.00;0.00;0.62;;;;;6.70;1.00;;;;;;2268483;61;976;-86
2021/01/12 06:20:57;59381.00;0.20;103.41;0.00;0.00;0.62;;;;;6.80;1.00;;;;;;2264754;61;1476;-86
2021/01/12 06:23:34;5344.00;0.02;9.88;0.00;0.00;0.62;;;;;6.30;1.00;;;;;;2264671;61;2009;-86
2021/01/12 06:26:02;31540.00;0.11;55.25;0.00;0.00;0.62;;;;;6.70;1.00;;;;;;2268454;61;1114;-86
2021/01/12 06:28:29;15057.00;0.05;26.71;0.00;0.00;0.62;;;;;6.70;1.00;;;;;;2264765;61;1075;-86
2021/01/12 06:30:58;20787.00;0.07;36.63;0.00;0.00;0.62;;;;;6.60;1.00;;;;;;2268339;61;1324;-85
2021/01/12 06:33:25;0.00;0.00;0.62;0.00;0.00;0.62;;;;;6.90;1.00;;;;;;2268484;61;1101;-86
2021/01/12 06:35:52;40935.00;0.14;71.51;0.00;0.00;0.62;;;;;7.30;1.00;;;;;;2268468;61;1048;-87
2021/01/12 06:38:20;16078.00;0.05;28.48;0.00;0.00;0.62;;;;;7.70;1.00;;;;;;2268415;61;1082;-85
2021/01/12 06:40:53;40677.00;0.14;71.06;0.00;0.00;0.62;;;;;7.90;1.00;;;;;;2268301;61;1414;-87
2021/01/12 06:43:25;41240.00;0.14;72.03;0.00;0.00;0.62;;;;;8.00;1.00;;;;;;2268665;61;2010;-87
2021/01/12 06:45:53;44268.00;0.15;77.27;0.00;0.00;0.62;;;;;8.20;1.00;;;;;;2269196;61;946;-87
2021/01/12 06:48:20;0.00;0.00;0.62;0.00;0.00;0.62;;;;;8.20;1.00;;;;;;2272090;61;976;-87
2021/01/12 06:50:48;40932.00;0.14;71.50;0.00;0.00;0.62;;;;;8.70;1.00;;;;;;2269153;61;1434;-88
2021/01/12 06:53:14;3108.00;0.01;6.01;0.00;0.00;0.62;;;;;9.10;1.00;;;;;;2269169;61;998;-87
2021/01/12 06:55:41;0.00;0.00;0.62;0.00;0.00;0.62;;;;;8.90;1.00;;;;;;2269154;61;1118;-86
2021/01/12 06:58:09;0.00;0.00;0.62;0.00;0.00;0.62;;;;;8.30;1.00;;;;;;2268920;61;1023;-86
2021/01/12 07:00:37;48993.00;0.16;85.44;0.00;0.00;0.62;;;;;8.00;1.00;;;;;;2269013;61;1367;-87
2021/01/12 07:03:06;0.00;0.00;0.62;0.00;0.00;0.62;;;;;7.70;1.00;;;;;;2269055;61;1920;-86
2021/01/12 07:05:42;1111.00;0.00;2.55;0.00;0.00;0.62;;;;;7.40;1.00;;;;;;2269098;61;1121;-86
2021/01/12 07:08:10;0.00;0.00;0.62;0.00;0.00;0.62;;;;;7.30;1.00;;;;;;2269069;61;1146;-87
2021/01/12 07:10:45;5920.00;0.02;10.88;0.00;0.00;0.62;;;;;7.20;1.00;;;;;;2268600;61;1315;-86
2021/01/12 07:13:12;8068.00;0.03;14.60;0.00;0.00;0.62;;;;;7.30;1.00;;;;;;2269042;61;1001;-86
2021/01/12 07:15:43;35625.00;0.12;62.32;0.00;0.00;0.62;;;;;7.30;1.00;;;;;;2265317;61;946;-87
2021/01/12 07:18:10;0.00;0.00;0.62;0.00;0.00;0.62;;;;;7.40;1.00;;;;;;2269054;61;1024;-87
2021/01/12 07:20:37;0.00;0.00;0.62;0.00;0.00;0.62;;;;;7.50;1.00;;;;;;2269041;61;1378;-87
2021/01/12 07:23:06;0.00;0.00;0.62;0.00;0.00;0.62;;;;;7.00;1.00;;;;;;2265293;61;1916;-85
2021/01/12 07:25:35;17031.00;0.06;30.13;0.00;0.00;0.62;;;;;6.60;1.00;;;;;;2269083;61;948;-85
2021/01/12 07:28:05;0.00;0.00;0.62;0.00;0.00;0.62;;;;;6.60;1.00;;;;;;2264562;61;960;-85
2021/01/12 07:30:33;0.00;0.00;0.62;0.00;0.00;0.62;;;;;6.40;1.00;;;;;;2261211;61;1468;-85
2021/01/12 07:33:01;24538.00;0.08;43.13;0.00;0.00;0.62;;;;;6.20;1.00;;;;;;2256425;61;1066;-85
2021/01/12 07:35:29;34164.00;0.11;59.79;0.00;0.00;0.62;;;;;6.20;1.00;;;;;;2249932;61;1008;-85
2021/01/12 07:37:56;70821.00;0.24;123.18;0.00;0.00;0.62;;;;;6.30;1.00;;;;;;2249815;61;983;-85
2021/01/12 07:40:23;16557.00;0.06;29.31;0.00;0.00;0.62;;;;;6.10;1.00;;;;;;2249733;61;1247;-86
2021/01/12 07:42:52;8995.00;0.03;16.21;0.00;0.00;0.62;;;;;6.10;1.00;;;;;;2256476;61;2005;-87
2021/01/12 07:45:21;35694.00;0.12;62.44;0.00;0.00;0.62;;;;;6.30;1.00;;;;;;2258033;61;1017;-87
2021/01/12 07:47:52;20615.00;0.07;36.34;0.00;0.00;0.62;;;;;6.30;1.00;;;;;;2264487;61;934;-86
2021/01/12 07:50:19;47710.00;0.16;83.23;0.00;0.00;0.62;;;;;6.20;1.00;;;;;;2265342;61;1448;-86
2021/01/12 07:52:46;17431.00;0.06;30.82;0.00;0.00;0.62;;;;;6.10;1.00;;;;;;2268512;61;1027;-85
2021/01/12 07:55:12;60133.00;0.20;104.71;0.00;0.00;0.62;;;;;6.40;1.00;;;;;;2264989;61;977;-86
2021/01/12 07:57:41;67722.00;0.23;117.82;0.00;0.00;0.62;;;;;6.20;1.00;;;;;;2261816;61;1046;-87
2021/01/12 08:00:09;9475.00;0.03;17.04;0.00;0.00;0.62;;;;;6.30;1.00;;;;;;2268860;61;1372;-86
2021/01/12 08:02:36;17985.00;0.06;31.78;0.00;0.00;0.62;;;;;6.10;1.00;;;;;;2268283;61;1926;-86
2021/01/12 08:05:05;55718.00;0.19;97.07;0.00;0.00;0.62;;;;;6.00;1.00;;;;;;2258353;61;996;-86
2021/01/12 08:07:32;6441.00;0.02;11.78;0.00;0.00;0.62;;;;;5.90;1.00;;;;;;2268296;61;947;-86
2021/01/12 08:10:00;84240.00;0.28;146.36;0.00;0.00;0.62;;;;;6.00;1.00;;;;;;2268336;61;1418;-86
2021/01/12 08:12:27;16506.00;0.06;29.22;0.00;0.00;0.62;;;;;6.00;1.00;;;;;;2261721;61;1010;-86
2021/01/12 08:14:55;4663.00;0.02;8.70;0.00;0.00;0.62;;;;;5.60;1.00;;;;;;2268367;61;1063;-86
2021/01/12 08:17:24;11250.00;0.04;20.11;0.00;0.00;0.62;;;;;5.60;1.00;;;;;;2268200;61;1644;-86
2021/01/12 08:19:50;44983.00;0.15;78.51;0.00;0.00;0.62;;;;;5.70;1.00;;;;;;2268403;61;1361;-86
2021/01/12 08:22:20;23001.00;0.08;40.47;0.00;0.00;0.62;;;;;5.60;1.00;;;;;;2268291;61;1055;-86
2021/01/12 08:24:47;22133.00;0.07;38.96;0.00;0.00;0.62;;;;;5.70;1.00;;;;;;2261604;61;2050;-86
2021/01/12 08:27:14;0.00;0.00;0.62;0.00;0.00;0.62;;;;;5.80;1.00;;;;;;2268375;61;1064;-86
2021/01/12 08:29:41;11850.00;0.04;21.15;0.00;0.00;0.62;;;;;6.00;1.00;;;;;;2268058;61;1362;-87
2021/01/12 08:32:12;1868.00;0.01;3.86;0.00;0.00;0.62;;;;;6.00;1.00;;;;;;2268164;61;1132;-86
2021/01/12 08:34:58;46460.00;0.15;81.06;0.00;0.00;0.62;;;;;6.30;1.00;;;;;;2268378;61;946;-86
2021/01/12 08:37:25;118126.00;0.39;204.85;0.00;0.00;0.62;;;;;6.10;1.00;;;;;;2268407;61;1031;-86
2021/01/12 08:39:52;20637.00;0.07;36.37;0.00;0.00;0.62;;;;;6.20;1.00;;;;;;2268372;61;1405;-87
2021/01/12 08:42:20;138330.00;0.46;239.69;0.00;0.00;0.62;;;;;6.10;1.00;;;;;;2264898;61;972;-86
2021/01/12 08:44:47;22855.00;0.08;40.21;0.00;0.00;0.62;;;;;5.80;1.00;;;;;;2267918;61;2018;-86
2021/01/12 08:47:15;55426.00;0.18;96.57;0.00;0.00;0.62;;;;;5.90;1.00;;;;;;2268053;61;1033;-86
2021/01/12 08:49:42;0.00;0.00;0.62;0.00;0.00;0.62;;;;;6.20;1.00;;;;;;2267680;61;1273;-86
2021/01/12 08:52:09;6163.00;0.02;11.30;0.00;0.00;0.62;;;;;6.30;1.00;;;;;;2261559;61;987;-87
2021/01/12 08:54:35;25103.00;0.08;44.11;0.00;0.00;0.62;;;;;6.40;1.00;;;;;;2268361;61;998;-87
2021/01/12 08:57:04;0.00;0.00;0.62;0.00;0.00;0.62;;;;;6.30;1.00;;;;;;2261565;61;1062;-87
2021/01/12 08:59:32;0.00;0.00;0.62;0.00;0.00;0.62;;;;;6.50;1.00;;;;;;2260051;61;1426;-87
2021/01/12 09:02:00;45556.00;0.15;79.50;0.00;0.00;0.62;;;;;6.60;1.00;;;;;;2250856;61;976;-86
2021/01/12 09:04:31;0.00;0.00;0.62;0.00;0.00;0.62;;;;;6.70;1.00;;;;;;2257579;61;1994;-87
2021/01/12 09:07:05;13936.00;0.05;24.77;0.00;0.00;0.62;;;;;6.40;1.00;;;;;;2264194;61;1163;-87
2021/01/12 09:09:32;32567.00;0.11;57.03;0.00;0.00;0.62;;;;;6.50;1.00;;;;;;2264249;61;1434;-87
2021/01/12 09:12:01;0.00;0.00;0.62;0.00;0.00;0.62;;;;;6.50;1.00;;;;;;2256138;61;1011;-87
2021/01/12 09:14:29;17056.00;0.06;30.17;0.00;0.00;0.62;;;;;6.40;1.00;;;;;;2249543;61;985;-87
2021/01/12 09:16:58;11176.00;0.04;19.99;0.00;0.00;0.62;;;;;6.30;1.00;;;;;;2258197;61;1052;-87
2021/01/12 09:19:34;61560.00;0.21;107.17;0.00;0.00;0.62;;;;;6.30;1.00;;;;;;2264142;61;1466;-87
2021/01/12 09:22:08;23390.00;0.08;41.14;0.00;0.00;0.62;;;;;6.30;1.00;;;;;;2257564;61;979;-87
2021/01/12 09:24:38;0.00;0.00;0.62;0.00;0.00;0.62;;;;;6.00;1.00;;;;;;2260053;61;2002;-86
2021/01/12 09:27:05;63143.00;0.21;109.91;0.00;0.00;0.62;;;;;5.70;1.00;;;;;;2260065;61;1017;-87
2021/01/12 09:29:37;25269.00;0.08;44.39;0.00;0.00;0.62;;;;;5.70;1.00;;;;;;2257894;61;1334;-87
2021/01/12 09:32:04;14130.00;0.05;25.10;0.00;0.00;0.62;;;;;5.90;1.00;;;;;;2264188;61;1021;-87
2021/01/12 09:34:31;47413.00;0.16;82.71;0.00;0.00;0.62;;;;;6.00;1.00;;;;;;2264192;61;929;-87
2021/01/12 09:36:58;25119.00;0.08;44.13;0.00;0.00;0.62;;;;;5.80;1.00;;;;;;2257493;61;991;-86
2021/01/12 09:39:26;95975.00;0.32;166.62;0.00;0.00;0.62;;;;;6.10;1.00;;;;;;2256037;61;1460;-87
2021/01/12 09:41:53;28984.00;0.10;50.82;0.00;0.00;0.62;;;;;6.00;1.00;;;;;;2251057;61;967;-87
2021/01/12 09:44:20;10194.00;0.03;18.29;0.00;0.00;0.62;;;;;5.90;1.00;;;;;;2264117;61;1985;-87
2021/01/12 09:46:47;62416.00;0.21;108.65;0.00;0.00;0.62;;;;;5.50;1.00;;;;;;2260759;61;973;-87
2021/01/12 09:49:13;66508.00;0.22;115.73;0.00;0.00;0.62;;;;;5.70;1.00;;;;;;2256032;61;1426;-88
2021/01/12 09:51:41;33913.00;0.11;59.36;0.00;0.00;0.62;;;;;5.60;1.00;;;;;;2255945;61;966;-87
2021/01/12 09:54:07;32038.00;0.11;56.11;0.00;0.00;0.62;;;;;5.90;1.00;;;;;;2252710;61;1023;-87
2021/01/12 09:56:36;32094.00;0.11;56.21;0.00;0.00;0.62;;;;;6.10;1.00;;;;;;2256574;61;983;-86
2021/01/12 09:59:03;52209.00;0.17;91.01;0.00;0.00;0.62;;;;;6.10;1.00;;;;;;2260086;61;1524;-88
2021/01/12 10:01:29;160206.00;0.53;277.39;0.00;0.00;0.62;;;;;6.10;1.00;;;;;;2260173;61;1024;-87
2021/01/12 10:03:56;0.00;0.00;0.62;0.00;0.00;0.62;;;;;6.00;1.00;;;;;;2256769;61;1991;-87
2021/01/12 10:06:22;31018.00;0.10;54.35;0.00;0.00;0.62;;;;;5.80;1.00;;;;;;2257771;61;1100;-85
2021/01/12 10:08:50;22979.00;0.08;40.43;0.00;0.00;0.62;;;;;6.00;1.00;;;;;;2259944;61;1290;-86
2021/01/12 10:11:17;79619.00;0.27;138.38;0.00;0.00;0.62;;;;;5.90;1.00;;;;;;2256628;61;1018;-87
2021/01/12 10:13:45;46907.00;0.16;81.84;0.00;0.00;0.62;;;;;6.10;1.00;;;;;;2260045;61;1121;-87
2021/01/12 10:16:20;25961.00;0.09;45.59;0.00;0.00;0.62;;;;;6.00;1.00;;;;;;2256686;61;975;-87
2021/01/12 10:18:46;35491.00;0.12;62.09;0.00;0.00;0.62;;;;;6.10;1.00;;;;;;2256425;61;941;-88
2021/01/12 10:21:15;11987.00;0.04;21.39;0.00;0.00;0.62;;;;;6.20;1.00;;;;;;2253456;61;1009;-87
2021/01/12 10:23:41;54550.00;0.18;95.05;0.00;0.00;0.62;;;;;6.20;1.00;;;;;;2256693;61;1928;-88
2021/01/12 10:26:13;187678.00;0.63;324.71;0.00;0.00;0.62;;;;;5.90;1.00;;;;;;2258332;61;1119;-87
2021/01/12 10:28:40;77044.00;0.26;133.93;0.00;0.00;0.62;;;;;6.00;1.00;;;;;;2256650;61;931;-87
2021/01/12 10:31:10;50787.00;0.17;88.55;0.00;0.00;0.62;;;;;6.10;1.00;;;;;;2253310;61;1392;-87